CMA CGM Kingfish — A8YW9 — position and weather

sailwx.info

Track history (hours):
 
Tides and Currents Weather Stations Pressure Air Temp Water Temp Dewpoint Dewpoint Depression Visibility Wind Speed Wind Dir Waves Ship Positions

CMA CGM Kingfish

Last reported at 2014-Aug-22 13:33 UTC. Time now 2014-Aug-22 13:49 UTC.
Position N 37°20' E 008°60'.

Length 294 m; draft 12.3 m.

Type: Ship (hazmat cat A). MMSI: 636015147.

Date/timePositionNaut miles runAvg speedWind from/ knotsBaromVisibWave heightAir tempDewpointWater temp
2014-Aug-22 13:33N 37°20' E 008°60'1616.2
2014-Aug-22 12:32N 37°16' E 008°40'1616.3
2014-Aug-22 11:33N 37°16' E 008°19'1616.4
2014-Aug-22 10:33N 37°17' E 007°59'1616.0
2014-Aug-22 09:32N 37°18' E 007°38'8315.9
2014-Aug-22 04:20N 37°16' E 005°54'7816.0
2014-Aug-21 23:30N 37°11' E 004°17'1516.1
2014-Aug-21 22:33N 37°10' E 003°58'1816.1
2014-Aug-21 21:25N 37°06' E 003°35'2016.0
2014-Aug-21 20:11N 37°02' E 003°11'1116.3
2014-Aug-21 19:29N 37°01' E 002°57'1516.1
2014-Aug-21 18:33N 36°58' E 002°39'1514.8
2014-Aug-21 17:33N 36°55' E 002°20'3516.0
2014-Aug-21 15:23N 36°48' E 001°38'4916.0
2014-Aug-21 12:20N 36°35' E 000°39'1516.2
2014-Aug-21 11:26N 36°31' E 000°22'4716.1
2014-Aug-21 08:31N 36°22' W 000°35'1919.3
2014-Aug-21 07:31N 36°19' W 000°59'2217.1
2014-Aug-21 06:14N 36°17' W 001°26'5116.3
2014-Aug-21 03:08N 36°13' W 002°28'1516.1
2014-Aug-21 02:12N 36°11' W 002°47'12216.0
2014-Aug-20 18:33N 35°59' W 005°17'5616.2
2014-Aug-20 15:05N 35°56' W 006°27'2516.3
2014-Aug-20 13:33N 36°01' W 006°57'3316.0
2014-Aug-20 11:29N 36°07' W 007°37'2316.3
2014-Aug-20 10:04N 36°12' W 008°05'1416.1
2014-Aug-20 09:14N 36°14' W 008°21'1415.7
2014-Aug-20 08:19N 36°17' W 008°39'1216.1
2014-Aug-20 07:33N 36°19' W 008°54'71416.1
2014-Aug-18 11:14N 39°12' W 023°30'1115.9
2014-Aug-18 10:33N 39°14' W 023°44'1716.3
2014-Aug-18 09:30N 39°17' W 024°06'2016.3
2014-Aug-18 08:16N 39°20' W 024°31'3516.3
2014-Aug-18 06:06N 39°25' W 025°17'1016.7
2014-Aug-18 05:30N 39°27' W 025°29'8716.3
2014-Aug-18 00:10N 39°38' W 027°21'9116.3
2014-Aug-17 18:33N 39°49' W 029°19'1616.4
2014-Aug-17 17:33N 39°51' W 029°40'1616.2
2014-Aug-17 16:33N 39°52' W 030°01'1816.1
2014-Aug-17 15:28N 39°53' W 030°24'  
Track history (hours):
 
Tides and Currents Weather Stations Pressure Air Temp Water Temp Dewpoint Dewpoint Depression Visibility Wind Speed Wind Dir Waves Ship Positions

CMA CGM Kingfish

Last reported at 2014-Aug-22 13:33 UTC. Time now 2014-Aug-22 13:49 UTC.
Position N 37°20' E 008°60'.

Length 294 m; draft 12.3 m.

Type: Ship (hazmat cat A). MMSI: 636015147.

Date/timePositionNaut miles runAvg speedWind from/ knotsBaromVisibWave heightAir tempDewpointWater temp
2014-Aug-22 13:33N 37°20' E 008°60'1616.2
2014-Aug-22 12:32N 37°16' E 008°40'1616.3
2014-Aug-22 11:33N 37°16' E 008°19'1616.4
2014-Aug-22 10:33N 37°17' E 007°59'1616.0
2014-Aug-22 09:32N 37°18' E 007°38'8315.9
2014-Aug-22 04:20N 37°16' E 005°54'7816.0
2014-Aug-21 23:30N 37°11' E 004°17'1516.1
2014-Aug-21 22:33N 37°10' E 003°58'1816.1
2014-Aug-21 21:25N 37°06' E 003°35'2016.0
2014-Aug-21 20:11N 37°02' E 003°11'1116.3
2014-Aug-21 19:29N 37°01' E 002°57'1516.1
2014-Aug-21 18:33N 36°58' E 002°39'1514.8
2014-Aug-21 17:33N 36°55' E 002°20'3516.0
2014-Aug-21 15:23N 36°48' E 001°38'4916.0
2014-Aug-21 12:20N 36°35' E 000°39'1516.2
2014-Aug-21 11:26N 36°31' E 000°22'4716.1
2014-Aug-21 08:31N 36°22' W 000°35'1919.3
2014-Aug-21 07:31N 36°19' W 000°59'2217.1
2014-Aug-21 06:14N 36°17' W 001°26'5116.3
2014-Aug-21 03:08N 36°13' W 002°28'1516.1
2014-Aug-21 02:12N 36°11' W 002°47'12216.0
2014-Aug-20 18:33N 35°59' W 005°17'5616.2
2014-Aug-20 15:05N 35°56' W 006°27'2516.3
2014-Aug-20 13:33N 36°01' W 006°57'3316.0
2014-Aug-20 11:29N 36°07' W 007°37'2316.3
2014-Aug-20 10:04N 36°12' W 008°05'1416.1
2014-Aug-20 09:14N 36°14' W 008°21'1415.7
2014-Aug-20 08:19N 36°17' W 008°39'1216.1
2014-Aug-20 07:33N 36°19' W 008°54'71416.1
2014-Aug-18 11:14N 39°12' W 023°30'1115.9
2014-Aug-18 10:33N 39°14' W 023°44'1716.3
2014-Aug-18 09:30N 39°17' W 024°06'2016.3
2014-Aug-18 08:16N 39°20' W 024°31'3516.3
2014-Aug-18 06:06N 39°25' W 025°17'1016.7
2014-Aug-18 05:30N 39°27' W 025°29'8716.3
2014-Aug-18 00:10N 39°38' W 027°21'9116.3
2014-Aug-17 18:33N 39°49' W 029°19'1616.4
2014-Aug-17 17:33N 39°51' W 029°40'1616.2
2014-Aug-17 16:33N 39°52' W 030°01'1816.1
2014-Aug-17 15:28N 39°53' W 030°24'  

Dump ship's entire track history